x

8419317 - Wells, Me (welm1) Weather Station

4:18 - Fri 30th Jan 2015 All times are EST. -5 hours from GMT.

  • Wind
    13mph, 17mph gusts
  • Sea Temp 34°f
  • Ar Temp 34°f
  • Sea Pressure 1012.2mb
  • 8419317 - Wells, Me
  • 8419317 - Wells, Me

More Historic Weather Station data

Upgrade to MSW Pro to gain access to the past 30 days of data for over 8000 Wavebouys and Weather Stations around the globe.

Join Pro

Comparision Forecast

View Surf forecast
   
Sex 01/30 4:18 13 17 mph 1012.2mb 34f 34f
4:12 13 17 mph 1012.3mb 34f 34f
4:06 14 16 mph 1012.4mb 34f 34f
4:00 14 16 mph 1012.5mb 34f 34f
3:54 14 16 mph 1012.6mb 34f 34f
3:48 13 16 mph 1012.7mb 33f 33f
3:42 8 11 mph 1012.8mb 33f 32f
3:36 6 7 mph 1012.8mb 32f 31f
3:30 5 7 mph 1012.8mb 32f 31f
3:24 7 8 mph 1013.1mb 32f 30f
3:18 7 8 mph 1013.3mb 31f 30f
3:12 7 13 mph 1013.5mb 31f 30f
3:06 7 9 mph 1013.5mb 31f 30f
3:00 8 16 mph 1013.7mb 32f 30f
2:54 13 16 mph 1013.9mb 32f 31f
2:48 15 16 mph 1014mb 32f 31f
2:42 15 17 mph 1014mb 32f 31f
2:36 14 17 mph 1014.1mb 32f 32f
2:30 13 15 mph 1013.8mb 32f 32f
2:24 10 11 mph 1014mb 32f 32f
2:18 8 11 mph 1014mb 32f 32f
2:12 3 7 mph 1014.2mb 32f 31f
2:06 3 8 mph 1014.5mb 32f 31f
2:00 3 5 mph 1014.7mb 32f 30f
1:54 5 6 mph 1014.9mb 32f 30f
1:48 3 5 mph 1015mb 33f -
1:42 5 7 mph 1015.3mb 33f -
1:36 6 8 mph 1015.5mb 33f -
1:30 6 8 mph 1015.5mb 33f 29f
1:24 6 8 mph 1015.7mb 33f 29f
1:18 7 8 mph 1016mb 33f 29f
1:12 6 8 mph 1016.2mb 33f 29f
1:06 7 9 mph 1016.3mb 33f 29f
1:00 7 8 mph 1016.2mb 33f 29f
12:54 7 10 mph 1016.3mb 33f 29f
12:48 7 9 mph 1016.4mb 33f 29f
12:42 7 9 mph 1016.4mb 33f 29f
12:36 7 8 mph 1016.4mb 33f 29f
12:30 6 8 mph 1016.5mb 33f 29f
12:24 7 8 mph 1016.5mb 33f 29f
12:18 7 9 mph 1016.6mb 33f 29f
12:12 7 8 mph 1016.8mb 33f 29f
12:06 7 8 mph 1016.9mb 33f 29f
12:00 6 8 mph 1016.9mb 33f 29f
Qui 01/29 11:54 8 9 mph 1017mb 33f 29f
11:48 7 8 mph 1017mb 33f 29f
11:42 7 9 mph 1017.2mb 33f 29f
11:36 5 6 mph 1017.2mb 33f 29f
11:30 2 6 mph 1017.4mb 33f 28f
11:24 5
mph
1017.8mb 33f 27f
11:18 2 3 mph 1017.8mb 33f 26f
11:12  -  3 mph 1017.7mb 33f 25f
11:06 2 3 mph 1017.9mb 33f 25f
11:00  -  1 mph 1017.9mb 33f 24f
10:54  -  1 mph 1017.8mb 33f 24f
10:48 1 2 mph 1017.8mb 33f 24f
10:42 2
mph
1017.7mb 33f 24f
10:36 1 2 mph 1017.8mb 34f 24f
10:30 1
mph
1017.7mb 34f 24f
10:24 2
mph
1017.7mb 34f 25f
10:18 3
mph
1017.7mb 33f 24f
10:12 3 5 mph 1017.6mb 33f 23f
10:06 3
mph
1017.6mb 33f 23f
10:00 2 3 mph 1017.6mb 34f 23f
9:54 2
mph
1017.7mb 34f 23f
9:48 2 3 mph 1017.8mb 34f 23f
9:42 2
mph
1017.9mb 34f 23f
9:36 2
mph
1018.2mb 34f 23f
9:30 2
mph
1018.3mb 34f 23f
9:24 1 2 mph 1018.4mb 34f 23f
9:18 1 2 mph 1018.6mb 34f 24f
9:12 2
mph
1018.7mb 34f 25f
9:06 2 3 mph 1018.9mb 34f 25f
9:00 3
mph
1018.9mb 34f 23f
8:54 3
mph
1018.9mb 34f 23f
8:48 2
mph
1019mb 34f 24f
8:42 2
mph
1019.1mb 34f 24f
8:36 1 2 mph 1019.1mb 34f 24f
8:30 2
mph
1019.2mb 34f 24f
8:24 2
mph
1019.4mb 34f 24f
8:18 2
mph
1019.4mb 34f 24f
8:12 1 2 mph 1019.6mb 34f 24f
8:06 1 2 mph 1019.7mb 34f 24f
8:00 1 2 mph 1019.9mb 34f 24f
7:54 1 2 mph 1019.9mb 34f 24f
7:48 1 2 mph 1020mb 34f 24f
7:42 2 3 mph 1020.1mb 34f 24f
7:36 2
mph
1020.1mb 34f 24f
7:30 2
mph
1020.2mb 34f 24f
7:24 2
mph
1020.3mb 34f 24f
7:18 1 2 mph 1020.4mb 34f 24f
7:12 1 2 mph 1020.5mb 34f 24f
7:06 1 2 mph 1020.5mb 34f 24f
7:00 1 2 mph 1020.6mb 34f 24f
6:54 1 2 mph 1020.6mb 34f 24f
6:48 1 2 mph 1020.6mb 34f 25f
6:42 2 5 mph 1020.8mb 34f 26f
6:36 5
mph
1020.8mb 34f 26f
6:30 3 5 mph 1020.8mb 34f 25f
6:24 3 5 mph 1020.7mb 34f 25f
6:18 2 3 mph 1020.7mb 34f 25f
6:12 3 5 mph 1020.7mb 34f 25f
6:06 3
mph
1020.8mb 34f 25f
6:00 3
mph
1020.8mb 34f 26f
5:54 3 5 mph 1020.9mb 34f 25f
5:48 2 3 mph 1020.8mb 34f 25f
5:42 3 5 mph 1020.8mb 34f 26f
5:36 3 5 mph 1020.8mb 34f 26f
5:30 3 5 mph 1020.9mb 34f 27f
5:24 3 5 mph 1020.9mb 34f 27f
5:18 2 5 mph 1020.9mb 34f 28f
5:12 3 6 mph 1021mb 34f 28f
5:06 3 6 mph 1021mb 34f 29f
5:00 3 6 mph 1021mb 34f 29f
4:54 5 7 mph 1021mb 34f 29f
4:48 6
mph
1021.2mb 34f 29f
4:42 5 6 mph 1021.2mb 34f 29f
4:36 6 8 mph 1021.2mb 34f 29f
4:30 6
mph
1021.2mb 34f 29f
4:24 6 7 mph 1021.3mb 34f 29f
4:18 3 6 mph 1021.3mb 34f 29f
4:12 5 6 mph 1021.3mb 34f 29f
4:06 6 7 mph 1021.3mb 34f 30f
4:00 5 6 mph 1021.4mb 33f 30f
3:54 3 6 mph 1021.3mb 32f 31f
3:48 5 6 mph 1021.4mb 32f 31f
3:42 3 5 mph 1021.5mb 31f 32f
3:36 3 5 mph 1021.6mb 31f 32f
3:30 5 6 mph 1021.6mb 30f 31f
3:24 6
mph
1021.8mb 30f 31f
3:18 5 6 mph 1021.8mb 30f 32f
3:12 3 5 mph 1021.8mb 30f 32f
3:06 3 6 mph 1021.8mb 30f 31f
3:00 5 6 mph 1022mb 29f 30f
2:54 6
mph
1022.2mb 29f 31f
2:48 6 7 mph 1022.4mb 29f 31f
2:42 6 7 mph 1022.4mb 29f 30f
2:36 6 7 mph 1022.4mb 29f 30f
2:30 6 7 mph 1022.5mb 29f 30f
2:24 6 8 mph 1022.7mb 29f 30f
2:18 6 7 mph 1022.8mb 30f 30f
2:12 6 8 mph 1022.8mb 30f 30f
2:06 6 8 mph 1022.7mb 30f 30f
2:00 6 9 mph 1022.8mb 30f 30f
1:30 5 7 mph 1022.6mb 31f 30f
1:24 6
mph
1022.6mb 31f 30f
1:18 5 7 mph 1022.8mb 31f 29f
1:12 5 6 mph 1023mb 31f 31f
1:06 3 6 mph 1023.2mb 31f 31f
1:00 3 5 mph 1023.2mb 31f 31f
12:54 3 5 mph 1023.3mb 31f 30f
12:48 2 3 mph 1023.4mb 31f 29f
12:42 2 3 mph 1023.4mb 31f 28f
12:36 2 5 mph 1023.5mb 31f 28f
12:30 3
mph
1023.7mb 31f 28f
12:24 3 5 mph 1023.8mb 31f 28f
12:18 3 5 mph 1023.9mb 31f 27f
12:12 5
mph
1023.9mb 32f 27f
12:06 3 5 mph 1024.1mb 32f 27f
12:00 3 5 mph 1024.3mb 32f 27f
11:54 3 5 mph 1024.4mb 32f 27f
11:48 3
mph
1024.6mb 32f 28f
11:42 2 3 mph 1024.9mb 32f 28f
11:36  -  2 mph 1024.9mb 32f 29f
11:30 2 3 mph 1025.1mb 32f 29f
11:24 2
mph
1025.2mb 32f 30f
11:18 1 2 mph 1025.3mb 32f 29f
11:12 1 2 mph 1025.4mb 32f 28f
11:06  -  1 mph 1025.4mb 32f 26f
11:00  -  1 mph 1025.5mb 32f 26f
10:00 1 2 mph 1026mb 32f 20f
9:54  -  2 mph 1026mb 32f 20f
9:48  -  1 mph 1026mb 33f 20f
9:42  -  1 mph 1026mb 33f 20f
9:36  -  1 mph 1026mb 33f 19f
9:30 1 3 mph 1026mb 33f 18f
9:24 2 3 mph 1026mb 33f 17f
9:18 1 2 mph 1026mb 32f 18f
9:12  -  2 mph 1025.9mb 32f 19f
9:06  -  2 mph 1025.9mb 32f 17f
9:00  -  1 mph 1026mb 32f 17f
8:54  -  2 mph 1025.9mb 33f 15f
8:48  -  2 mph 1025.8mb 33f 14f
8:42 2
mph
1025.7mb 33f 13f
8:36  -  3 mph 1025.7mb 33f 13f
8:30 2 3 mph 1025.8mb 33f 12f
8:24 1 2 mph 1025.8mb 33f 12f
8:18 3
mph
1025.8mb 33f 11f
8:12 3
mph
1025.8mb 33f 11f
8:06 1 3 mph 1025.8mb 33f 10f
8:00 2 6 mph 1025.8mb 33f 9f
7:54 5 7 mph 1025.6mb 33f 8f
7:48 6 8 mph 1025.6mb 33f 7f
7:42 5 6 mph 1025.4mb 33f 7f
7:36 2 5 mph 1025.3mb 33f 6f
7:30 3 5 mph 1025.3mb 33f 5f
7:24 5
mph
1025.2mb 33f 4f
7:18 5
mph
1025.1mb 33f 4f
7:12 2 3 mph 1025mb 34f 4f
7:06 2 3 mph 1025mb 34f 5f
7:00 2
mph
1024.9mb 34f 5f
6:54 2
mph
1025mb 34f 5f
6:48  -  2 mph 1024.9mb 34f 5f
6:42 1 3 mph 1024.9mb 34f 4f
6:36 2
mph
1024.8mb 34f 6f
6:30 1 2 mph 1024.7mb 34f 6f
6:24 2 3 mph 1024.7mb 34f 6f
6:18  -  1 mph 1024.6mb 34f 7f
6:12 1 2 mph 1024.7mb 34f 7f
6:06  -  1 mph 1024.8mb 34f 9f
6:00  -  2 mph 1024.8mb 34f 8f
5:54 1 3 mph 1024.7mb 34f 7f
5:48 3 6 mph 1024.6mb 34f 6f
5:42 5 6 mph 1024.6mb 34f 6f
5:36 3 5 mph 1024.7mb 34f 7f
5:30 2 3 mph 1024.7mb 34f 7f
5:24 3 5 mph 1024.8mb 34f 7f
5:18 2 3 mph 1024.9mb 34f 7f
5:12 2 3 mph 1024.9mb 34f 9f
5:06  -  2 mph 1024.9mb 34f 8f
5:00 2 3 mph 1024.9mb 34f 8f
4:54 2 3 mph 1024.8mb 34f 9f
4:48 2 3 mph 1024.8mb 34f 10f
4:42 2 3 mph 1024.8mb 34f 9f
4:36 2 5 mph 1024.8mb 34f 9f
4:30 3
mph
1024.9mb 34f 8f
4:24  -  2 mph 1024.7mb 34f 9f
4:18 2 5 mph 1024.5mb 34f 9f
4:12 5 6 mph 1024.4mb 34f 10f
4:06 1 2 mph 1024.2mb 34f 9f
4:00 2 3 mph 1024.1mb 34f 8f
3:54 2 3 mph 1024mb 34f 8f
3:48 3
mph
1024mb 34f 10f
3:42 2 3 mph 1024mb 34f 12f
3:36  -  3 mph 1023.9mb 34f 12f
3:30 2 3 mph 1024.1mb 34f 11f
3:24 3 5 mph 1024mb 34f 11f
3:18 5 7 mph 1023.8mb 34f 12f
3:12 6 7 mph 1023.7mb 33f 12f
3:06 6 7 mph 1023.9mb 33f 12f
3:00 5 6 mph 1024mb 33f 12f
2:54 5 6 mph 1023.9mb 32f 12f
2:48 5 6 mph 1024mb 32f 12f
2:42 5 6 mph 1024mb 31f 12f
2:36 6 7 mph 1024mb 30f 12f
2:30 6 7 mph 1024mb 29f 12f
2:24 5 7 mph 1023.9mb 29f 12f
2:18 6 10 mph 1023.9mb 29f 12f
2:12 8 11 mph 1023.7mb 29f 13f
2:06 8 10 mph 1023.8mb 29f 12f
2:00 7 9 mph 1023.7mb 29f 12f
1:54 5 7 mph 1023.7mb 29f 11f
1:48  -  2 mph 1023.8mb 29f 10f
1:42 2 3 mph 1023.8mb 29f 11f
1:36 2 5 mph 1023.7mb 29f 11f
1:30 3 5 mph 1023.7mb 30f 11f
1:24  -  2 mph 1023.6mb 30f 11f
1:18 2 3 mph 1023.6mb 30f 11f
1:12 2 5 mph 1023.5mb 31f 11f
1:06 2 3 mph 1023.4mb 31f 11f
1:00 2 5 mph 1023.3mb 31f 11f
12:54 5 6 mph 1023.3mb 32f 12f
12:48 3 6 mph 1023.2mb 32f 12f
12:42 3 5 mph 1023.1mb 32f 12f
12:36 3 6 mph 1023mb 32f 12f
12:30 3 7 mph 1022.9mb 32f 12f
12:24 6 7 mph 1022.9mb 32f 12f
12:18 7 9 mph 1022.8mb 32f 12f
12:12 8 9 mph 1022.7mb 32f 12f
12:06 5 6 mph 1022.7mb 32f 12f
12:00 5 6 mph 1022.6mb 33f 12f
Qua 01/28 11:54 5
mph
1022.5mb 33f 13f
11:48 3 5 mph 1022.6mb 33f 13f
11:42 3
mph
1022.4mb 33f 13f
11:36 2 3 mph 1022.4mb 33f 14f
11:30 1 3 mph 1022.4mb 33f 13f
11:24 2 5 mph 1022.3mb 33f 13f
11:18  -  2 mph 1022.2mb 33f 13f
11:12 3 6 mph 1022.1mb 33f 13f
11:06 2 6 mph 1022mb 33f 14f
11:00 5 6 mph 1021.9mb 33f 14f
10:54 2 3 mph 1021.9mb 33f 14f
10:48 1 2 mph 1021.9mb 33f 15f
10:42 1 2 mph 1021.7mb 33f 15f
10:36 1 5 mph 1021.6mb 32f 15f
10:30 3 6 mph 1021.5mb 32f 15f
10:24 3 5 mph 1021.5mb 32f 15f
10:18 1 5 mph 1021.4mb 32f 15f
10:12 2 3 mph 1021.3mb 31f 15f
10:06 2 3 mph 1021.3mb 31f 16f
10:00 2
mph
1021.3mb 31f 16f
9:54  -  3 mph 1021.2mb 31f 17f
9:48 2 6 mph 1021.2mb 32f 17f
9:42 5 7 mph 1021.2mb 32f 17f
9:36 2 5 mph 1021.2mb 32f 17f
9:30 3 5 mph 1021.1mb 32f 17f
9:24 3 6 mph 1021mb 32f 17f
9:18 3 7 mph 1020.9mb 32f 18f
9:12 5 6 mph 1020.9mb 32f 18f
9:06 2 6 mph 1020.9mb 33f 18f
9:00 5 8 mph 1020.7mb - -
8:54 6 7 mph 1020.5mb - -
8:48 6 7 mph 1020.4mb 33f 18f
8:42 5 7 mph 1020.4mb 33f 19f
8:36 6 7 mph 1020.4mb 33f 19f
8:30 5 6 mph 1020.3mb 33f 19f
8:24 5 7 mph 1020.1mb 33f 19f
8:18 6 7 mph 1020mb - 19f
8:12 3 8 mph 1019.9mb - 20f
8:06 6 10 mph 1019.7mb - 20f
8:00 8 10 mph 1019.7mb 34f 20f
7:54 9 11 mph 1019.6mb 34f 20f
7:48 9 13 mph 1019.4mb 34f 20f
7:42 10 13 mph 1019.3mb 34f 20f
7:36 10 13 mph 1019.3mb 34f 20f
7:30 10 11 mph 1019.2mb 34f 21f
7:24 8 13 mph 1019.1mb 34f 21f
7:18 8 11 mph 1019mb 34f 21f
7:12 6 10 mph 1018.9mb 34f 21f
7:06 8 10 mph 1018.8mb 34f 21f
7:00 8 11 mph 1018.6mb 34f 21f
6:54 7 10 mph 1018.5mb 34f 21f
6:48 8 9 mph 1018.3mb 34f 21f
6:42 7 10 mph 1018.3mb 34f 21f
6:36 7 9 mph 1018.2mb 34f 22f
6:30 7 9 mph 1018mb 34f 22f
6:24 6 9 mph 1017.8mb 34f 22f
6:18 5 9 mph 1017.7mb 34f 22f
6:12 7 11 mph 1017.7mb 34f 23f
6:06 7 9 mph 1017.6mb 34f 23f
6:00 9 11 mph 1017.4mb 34f 23f
5:54 8 9 mph 1017.3mb 34f 23f
5:48 7 11 mph 1017.2mb 34f 23f
5:42 7 10 mph 1017.1mb 34f 24f
5:36 5 9 mph 1017mb 34f 24f
5:30 7 9 mph 1016.9mb 34f 24f
5:24 8 9 mph 1016.8mb 34f 24f
5:18 5 7 mph 1016.7mb 35f 25f
5:12 7 9 mph 1016.5mb 35f 25f
5:06 6 9 mph 1016.4mb 35f 25f
5:00  -  mph 1016.2mb 35f -
4:54  -  mph 1016.1mb 35f -
4:48 8 13 mph 1016mb 34f 25f
4:42 10 13 mph 1015.7mb 34f 26f
4:36 9 11 mph 1015.6mb 34f 26f
4:30 8 11 mph 1015.5mb 34f 26f
4:24 8 13 mph 1015.4mb 34f 26f
4:18  -  mph - 34f 26f
4:12  -  mph - 34f 26f
4:06  -  mph - 34f 26f
4:00 10 15 mph 1014.9mb 34f 26f
3:54 8 14 mph 1014.8mb 34f 27f
3:48 11 14 mph 1014.7mb 34f 27f
3:42 9 13 mph 1014.7mb 34f 27f
3:36 10 14 mph 1014.5mb 34f 27f
3:30 8 17 mph 1014.5mb 34f 28f
3:24 14 20 mph 1014.3mb 34f 28f
3:18 14 22 mph 1014.2mb 33f 28f
3:12 15 18 mph 1014.1mb 33f 28f
3:06 10 17 mph 1014.1mb 32f 27f
3:00 14 17 mph 1014mb 31f 27f
2:54 13 17 mph 1013.9mb 29f 27f
2:48 14 20 mph 1013.7mb 29f 27f
2:42 15 20 mph 1013.6mb - 27f
2:36 9 13 mph 1013.5mb - 27f
2:30 11 16 mph 1013.5mb - 27f
2:24 14 16 mph 1013.4mb - 27f
2:18 15 21 mph 1013.2mb - 27f
2:12 14 20 mph 1013.1mb - 27f
2:06 16 23 mph 1013.1mb - 26f
2:00 17 24 mph 1012.9mb - 26f
1:54 20 23 mph 1012.8mb - 26f
1:48 17 23 mph 1012.7mb - 26f
1:42 14 22 mph 1012.7mb - 26f
1:36 13 20 mph 1012.6mb - 26f
1:30 15 21 mph 1012.5mb - 26f
1:24 15 18 mph 1012.3mb - 26f
1:18 10 16 mph 1012.3mb - 26f
1:12 16 21 mph 1012.2mb - 25f
1:06 10 21 mph 1012.2mb 28f 26f
1:00  -  mph 1012.1mb 29f 25f
12:54  -  mph 1012.1mb 29f 24f
12:48 14 17 mph 1012.2mb 29f 24f
12:42 14 20 mph 1012mb 30f 24f
12:36 16 21 mph 1012.1mb 30f 24f
12:30 10 17 mph 1012.2mb 30f 24f
12:24 13 22 mph 1012.2mb 30f 24f
12:18 10 18 mph 1012.4mb 30f 24f
12:12 13 22 mph 1012.3mb 30f 23f
12:06 13 17 mph 1012.3mb 30f 23f
12:00 11 17 mph 1012.3mb 30f 22f
11:54 14 21 mph 1012.3mb 30f 22f
11:48 14 22 mph 1012.4mb 30f 22f
11:42 15 21 mph 1012.4mb 30f 22f
11:36 14 18 mph 1012.5mb 30f 22f
11:30 11 16 mph 1012.4mb 30f 22f
11:24 11 16 mph 1012.4mb 30f 22f
11:18 11 15 mph 1012.5mb 31f 22f
11:12 13 18 mph 1012.5mb 31f 21f
11:06 13 18 mph 1012.6mb 31f 21f
11:00  -  mph - - 21f
10:54  -  mph - - 20f
10:48 15 22 mph 1012.7mb 31f 21f
10:42 15 21 mph 1012.7mb 31f 20f
10:36 15 20 mph 1012.7mb 31f 20f
10:30 15 22 mph 1012.7mb 31f 20f
10:24 13 22 mph 1012.7mb 31f 20f
10:18 14 20 mph 1012.6mb 31f 20f
10:12 14 21 mph 1012.6mb 31f 20f
10:06 14 21 mph 1012.5mb 31f 20f
10:00 15 20 mph 1012.5mb 32f 19f
9:54 16 21 mph 1012.3mb 31f 19f
9:48 17 22 mph 1012.1mb 32f 19f
9:42 15 21 mph 1012mb 32f 19f
9:36 14 17 mph 1011.9mb 32f 19f
9:30 10 16 mph 1011.9mb 32f 19f
9:24 15 20 mph 1011.8mb 31f 19f
9:18 10 15 mph 1011.6mb 31f 19f
9:12 14 16 mph 1011.5mb 31f 19f
9:06 10 15 mph 1011.4mb 30f 19f
9:00 11 16 mph 1011.3mb 30f 18f
8:54 11 14 mph 1011.2mb 30f 18f
8:48 10 14 mph 1011.1mb 30f 18f
8:42 11 16 mph 1011mb 30f 18f
8:36 9 11 mph 1010.8mb 30f 18f
8:30 9 11 mph 1010.7mb 31f 18f
8:24 9 13 mph 1010.7mb 31f 18f
8:18 8 13 mph 1010.5mb 31f 18f
8:12 8 11 mph 1010.4mb 31f 18f
8:06 8 11 mph 1010.3mb 31f 18f
8:00 9 13 mph 1010.2mb 31f 18f
7:54 8 10 mph 1010.1mb 32f 17f
7:48 7 9 mph 1010mb 32f 17f
7:42 7 10 mph 1009.9mb 32f 17f
7:36 6 11 mph 1009.8mb 32f 17f
7:30 6 9 mph 1009.6mb 32f 17f
7:24 6 9 mph 1009.5mb 32f 17f
7:18 6 10 mph 1009.3mb 33f 17f
7:12 6 9 mph 1009.2mb 33f 17f
7:06 7 10 mph 1009.1mb 33f 16f
7:00 6 10 mph 1008.9mb 33f 16f
6:54 7 9 mph 1008.7mb 33f 16f
6:48 6 8 mph 1008.6mb 33f 17f
6:42 7 10 mph 1008.5mb 33f 17f
6:36 7 10 mph 1008.3mb 33f 17f
6:30 9 13 mph 1008.2mb 33f 17f
6:24 8 14 mph 1008.1mb 33f 17f
6:18 13 17 mph 1007.9mb 33f 17f
6:12 10 13 mph 1007.9mb 33f 17f
6:06 10 13 mph 1007.8mb 33f 17f
6:00 11 16 mph 1007.6mb 34f 17f
5:54 9 15 mph 1007.5mb 34f 17f
5:48 9 15 mph 1007.3mb - -
5:42 10 15 mph 1007.1mb - -
5:36 10 14 mph 1007mb - -
5:30 13 16 mph 1006.9mb 34f 17f
5:24 13 18 mph 1006.8mb 34f 17f
5:18 11 18 mph 1006.7mb 34f 17f
5:12 11 17 mph 1006.6mb 34f 17f
5:06 14 20 mph 1006.5mb 34f 17f
5:00 14 17 mph 1006.3mb 34f 17f
4:54 15 21 mph 1006.3mb 34f 17f
4:48 14 18 mph 1006.1mb 34f 17f
4:42 14 23 mph 1006mb 34f 16f
4:36 14 17 mph 1005.9mb 34f 16f
4:30 15 18 mph 1005.9mb 34f 16f
4:24 14 18 mph 1005.8mb 34f 16f
4:18 14 18 mph 1005.7mb 34f 16f
4:12 14 20 mph 1005.6mb 34f 16f
4:06 14 22 mph 1005.5mb 34f 16f
4:00 15 21 mph 1005.3mb 34f 16f
3:54 15 24 mph 1005.3mb 34f 16f
3:48 14 18 mph 1005.2mb 34f 16f
3:42 15 22 mph 1005.1mb 34f 16f
3:36 17 22 mph 1004.9mb 34f 16f
3:30 14 22 mph 1004.8mb 34f 16f
3:24 16 21 mph 1004.6mb 33f 16f
3:18 15 18 mph 1004.5mb 34f 16f
3:12 16 21 mph 1004.4mb 34f 16f
3:06 16 20 mph 1004.4mb 34f 16f
3:00 15 22 mph 1004.3mb 34f 16f
2:54 15 21 mph 1004.2mb 34f 16f
2:48 16 21 mph 1004.1mb 34f 16f
2:42 17 22 mph 1004.1mb 34f 16f
2:36 14 23 mph 1003.9mb 33f 16f
2:30 15 25 mph 1003.8mb 34f 16f
2:24 16 24 mph 1003.7mb 34f 16f
2:18 18 24 mph 1003.6mb 34f 16f
2:12 18 22 mph 1003.5mb 34f 16f
2:06 16 22 mph 1003.6mb 33f 16f
2:00 17 23 mph 1003.4mb 33f 16f
1:54 17 22 mph 1003.4mb 33f 16f
1:48 16 25 mph 1003.3mb 32f 16f
1:42 17 22 mph 1003.1mb 30f 16f
1:36 14 28 mph 1003.2mb 29f 16f
1:30 17 23 mph 1003mb - 16f
1:24 15 26 mph 1003mb - 16f
1:18 18 26 mph 1002.8mb - 16f
1:12 20 25 mph 1002.8mb - 16f
1:06 16 32 mph 1002.8mb - 16f
1:00 18 28 mph 1002.5mb - 16f
12:54 20 28 mph 1002.5mb - 16f
12:48 23 28 mph 1002.4mb - 16f
12:42 16 24 mph 1002.5mb - 16f
12:36 17 23 mph 1002.4mb - 16f
12:30 22 29 mph 1002.5mb - 16f
12:24 18 24 mph 1002.4mb - 16f
12:18 20 31 mph 1002.4mb - 16f
12:12 22 28 mph 1002.3mb - 16f
12:06 21 28 mph 1002.3mb - 16f
12:00 18 29 mph 1002.4mb - 16f
Ter 01/27 11:54 22 30 mph 1002.3mb - 16f
11:48 23 30 mph 1002.2mb 28f 16f
11:42 20 30 mph 1002.3mb 29f 16f
11:36 16 29 mph 1002.2mb 29f 16f
11:30 21 29 mph 1002mb 29f 16f
11:24 21 26 mph 1002mb 29f 16f
11:18 24 31 mph 1001.9mb 29f 16f
11:12 20 25 mph 1001.9mb 29f 16f
11:06 22 29 mph 1001.8mb 29f 16f
11:00 20 32 mph 1001.7mb 29f 16f
10:54 22 30 mph 1001.6mb 29f 16f
10:48 20 34 mph 1001.6mb 29f 16f
10:42 21 30 mph 1001.6mb 29f 16f
10:36 20 30 mph 1001.5mb 29f 16f
10:30 18 29 mph 1001.5mb 29f 15f
10:24 17 26 mph 1001.5mb 30f 15f
10:18 22 29 mph 1001.4mb 30f 16f
10:12 21 32 mph 1001.4mb 30f 15f
10:06 18 25 mph 1001.3mb 29f 15f
10:00 18 28 mph 1001.3mb 29f 15f
9:54 18 30 mph 1001.2mb 29f 15f
9:48 21 29 mph 1001.2mb 29f 15f
9:42 18 24 mph 1001.2mb - 15f
9:36 22 29 mph 1001.1mb 28f 15f
9:30 24 32 mph 1001mb 28f 15f
9:24 17 29 mph 1000.9mb 28f 15f
9:18 20 31 mph 1000.9mb - 15f
9:12 24 29 mph 1000.8mb - 15f
9:06 22 31 mph 1000.8mb - 15f
9:00 22 29 mph 1000.8mb - 15f
8:54 21 24 mph 1000.9mb - 15f
8:48 20 26 mph 1000.8mb - 15f
8:42 21 28 mph 1000.8mb - 15f
8:36 17 26 mph 1000.8mb - 16f
8:30 21 29 mph 1000.7mb - 16f
8:24 23 30 mph 1000.6mb - 16f
8:18 16 23 mph 1000.6mb - 16f
8:12 24 32 mph 1000.4mb - 16f
8:06 22 31 mph 1000.3mb 29f 16f
8:00 23 34 mph 1000.3mb 29f 16f
7:54 22 41 mph 1000.3mb 29f 17f
7:48 30 39 mph 1000.1mb 29f 17f
7:42 22 39 mph 1000.2mb 30f 17f
7:36 29 41 mph 999.9mb 30f 17f
7:30 31 44 mph 1000mb 31f 17f
7:24 32 41 mph 999.8mb 31f 17f
7:18 30 43 mph 999.8mb 31f 17f
7:12 28 40 mph 1000mb 31f 17f
7:06 31 41 mph 1000mb 31f 17f
7:00 28 43 mph 1000mb 31f 17f
6:54 31 38 mph 999.9mb 31f 17f
6:48 28 43 mph 999.8mb 32f 17f
6:42 37 45 mph 999.7mb 32f 17f
6:36 31 39 mph 999.8mb 32f 17f
6:30 32 51 mph 999.7mb 32f 17f
6:24 29 47 mph 999.7mb 32f 17f
6:18 29 45 mph 999.6mb 32f 17f
6:12 34 47 mph 999.4mb 33f 17f
6:06 34 52 mph 999.3mb 33f 17f
6:00 33 49 mph 999.3mb 33f 17f
5:54 30 45 mph 999.5mb 33f 17f
5:48 36 48 mph 999.3mb 33f 17f
5:42 30 48 mph 999.3mb 33f 17f
5:36 33 44 mph 999.2mb 33f 17f
5:30 31 40 mph 999.2mb 33f 18f
5:24 28 49 mph 999.2mb 33f 17f
5:18 31 41 mph 999mb 33f 17f
5:12 28 47 mph 999.1mb 33f 17f
5:06 36 45 mph 998.7mb 33f 17f
5:00 29 40 mph 998.9mb 33f 17f
4:54 33 45 mph 998.9mb 33f 17f
4:48 32 39 mph 998.8mb 33f 17f
4:42 28 36 mph 998.8mb 33f 17f
4:36 24 39 mph 998.9mb 33f 17f
4:30 33 41 mph 998.5mb 33f 17f
4:24 28 38 mph 998.5mb 33f 16f
4:18 28 39 mph 998.4mb 33f 17f
4:12 25 43 mph 998.4mb 34f 17f
4:06 29 37 mph 998.4mb 34f 16f
4:00 26 37 mph 998.4mb 34f 17f
3:54 25 38 mph 998.2mb 34f 16f
3:48 28 36 mph 998mb 34f 16f
3:42 26 46 mph 998.1mb 34f 16f
3:36 24 34 mph 997.9mb 34f 16f
3:30 25 36 mph 998mb 34f 16f
3:24 24 34 mph 998.1mb 34f 16f
3:18 22 33 mph 998.1mb 34f 16f
3:12 26 37 mph 998mb 34f 16f
3:06 22 40 mph 997.9mb 34f 15f
3:00 25 37 mph 997.7mb 34f 15f
2:54 22 29 mph 997.8mb 34f 15f
2:48 23 29 mph 997.9mb 34f 15f
2:42 23 33 mph 997.9mb 34f 15f
2:36 25 33 mph 997.9mb 34f 15f
2:30 23 32 mph 997.9mb 34f 15f
2:24 22 28 mph 998mb 34f 15f
2:18 20 29 mph 998.1mb 34f 15f
2:12 22 30 mph 998.1mb 34f 15f
2:06 23 29 mph 998.2mb 34f 14f
2:00 22 26 mph 998.1mb 34f 15f
1:54 17 24 mph 998.1mb 34f 14f
1:48 21 29 mph 998mb 34f 15f
1:42 23 32 mph 998mb 34f 15f
1:36 25 32 mph 997.9mb 34f 14f
1:30 25 34 mph 998mb 34f 14f
1:24 26 34 mph 998.1mb 34f 14f
1:18 22 29 mph 998.4mb 33f 14f
1:12 22 28 mph 998.4mb 31f 14f
1:06 21 28 mph 998.4mb 31f 14f
1:00 21 31 mph 998.6mb 30f 14f
12:54 23 31 mph 998.5mb 29f 14f
12:48 21 30 mph 998.7mb - 14f
12:42 22 28 mph 998.8mb - 13f
12:36 25 32 mph 998.8mb - 13f
12:30 21 29 mph 999mb - 13f
12:24 23 30 mph 999mb - 13f
12:18 21 30 mph 999.1mb - 13f
12:12 25 34 mph 999.1mb - 13f
12:06 24 32 mph 999.3mb - 13f
12:00 23 34 mph 999.4mb - 14f
11:54 22 33 mph 999.4mb - 14f
11:48 25 32 mph 999.4mb - 14f
11:42 26 33 mph 999.6mb - 14f
11:36 22 37 mph 999.7mb - 14f
11:30 24 38 mph 999.8mb - 14f
11:24 25 32 mph 999.9mb - 13f
11:18 23 31 mph 1000.1mb - 13f
11:12 28 37 mph 1000.2mb - 14f
11:06 25 31 mph 1000.1mb - 13f
11:00 25 33 mph 1000.3mb - 13f
10:54 25 30 mph 1000.5mb - 14f
10:48 28 37 mph 1000.7mb - 14f
10:42 22 32 mph 1001mb - 13f
10:36 24 32 mph 1001.2mb - 14f
10:30 26 31 mph 1001.5mb - 13f
10:24 25 33 mph 1001.6mb - 14f
10:18 24 31 mph 1001.6mb - 13f
10:12 22 36 mph 1001.9mb - 14f
10:06 24 32 mph 1001.9mb - 13f
10:00 24 32 mph 1001.9mb - 13f
9:54 23 29 mph 1002mb - 13f
9:48 25 33 mph 1002mb - 13f
9:42 25 38 mph 1002mb - 13f
9:36 23 36 mph 1002mb - 13f
9:30 26 38 mph 1002mb - 13f
9:24 24 37 mph 1001.8mb - 13f
9:18 26 33 mph 1001.7mb - 13f
9:12 25 36 mph 1001.8mb - 13f
9:06 28 40 mph 1001.9mb - 13f
9:00 28 41 mph 1001.8mb - 13f
8:54 29 37 mph 1002.2mb - 13f
8:48 28 39 mph 1002.1mb - 13f
8:42 25 37 mph 1002.6mb - 13f
8:36 28 34 mph 1002.9mb - 13f
8:30 28 33 mph 1003.1mb - 13f
8:24 25 31 mph 1003.3mb - 13f
8:18 26 36 mph 1003.6mb - 13f
8:12 25 37 mph 1003.5mb - 13f
8:06 26 32 mph 1003.6mb - 12f
8:00 23 37 mph 1004mb 29f 13f
7:54 28 37 mph 1003.8mb 30f 13f
7:48 29 36 mph 1003.8mb 29f 12f
7:42 28 39 mph 1003.6mb 30f 13f
7:36 30 41 mph 1003mb 30f 13f
7:30 29 40 mph 1003.2mb 31f 13f
7:24 32 41 mph 1003mb 31f 13f
7:18 34 43 mph 1003.3mb 31f 13f
7:12 30 39 mph 1003.4mb 31f 13f
7:06 33 40 mph 1003.5mb 32f 13f
7:00 29 41 mph 1003.4mb 32f 13f
6:54 28 40 mph 1003.4mb 32f 13f
6:48 32 43 mph 1003.6mb 33f 12f
6:42 34 41 mph 1003.2mb 33f 12f
6:36 36 43 mph 1003.2mb 33f 12f
6:30 31 48 mph 1003.2mb 33f 12f
6:24 28 41 mph 1003.6mb 33f 13f
6:18 30 48 mph 1003.5mb 34f 12f
6:12 29 43 mph 1003.4mb 34f 12f
6:06 32 41 mph 1003.2mb 34f 13f
6:00 33 44 mph 1003.4mb 34f 13f
5:54 31 49 mph 1003.4mb 34f 12f
5:48 33 51 mph 1003.5mb 34f 12f
5:42 31 43 mph 1004mb 34f 13f
5:36 32 40 mph 1004.2mb 34f 12f
5:30 33 41 mph 1004.4mb 34f 12f
5:24 29 38 mph 1004.7mb 34f 13f
5:18 29 40 mph 1004.8mb 34f 12f
5:12 32 46 mph 1004.9mb 35f 12f
5:06 30 38 mph 1005.3mb 35f 12f
5:00 32 38 mph 1005.7mb 35f 12f
4:54 29 34 mph 1006.3mb 35f 13f
4:48 30 37 mph 1006.6mb 35f 13f
4:42 29 44 mph 1006.7mb 35f 13f
4:36 26 33 mph 1006.6mb 35f 13f
4:30 26 41 mph 1006.7mb 35f 13f
4:24 26 38 mph 1006.8mb 35f 13f
4:18 26 38 mph 1006.9mb 35f 13f
4:12 26 43 mph 1006.8mb 35f 13f
4:06 28 38 mph 1007mb 35f 13f
4:00 29 38 mph 1007.2mb 35f 13f
3:54 28 33 mph 1007.6mb 35f 13f
3:48 29 38 mph 1007.6mb 35f 14f
3:42 26 36 mph 1007.8mb 35f 14f
3:36 26 34 mph 1008.2mb 35f 13f
3:30 26 37 mph 1008.6mb 35f 13f
3:24 24 33 mph 1008.9mb 35f 14f
3:18 28 36 mph 1008.8mb 35f 13f
3:12 24 32 mph 1009mb 35f 13f
3:06 28 36 mph 1008.8mb 35f 13f
3:00 25 39 mph 1008.4mb 35f 13f
2:54 24 29 mph 1008.4mb 35f 13f
2:48 28 37 mph 1008.7mb 35f 13f
2:42 28 33 mph 1008.8mb 35f 13f
2:36 26 31 mph 1008.9mb 35f 13f
2:30 26 31 mph 1009.4mb 35f 13f
2:24 25 31 mph 1009.6mb 35f 13f
2:18 28 36 mph 1009.5mb 35f 13f
2:12 25 32 mph 1009.8mb 35f 13f
2:06 23 33 mph 1009.8mb 35f 13f
2:00 24 30 mph 1010.3mb 35f 13f
1:54 23 32 mph 1010.6mb 35f 13f
1:48 22 31 mph 1010.3mb 35f 13f
1:42 20 29 mph 1010.5mb 35f 13f
1:36 22 32 mph 1010.9mb 35f 14f
1:30 24 30 mph 1010.9mb 35f 14f
1:24 23 30 mph 1011.3mb 35f 14f
1:18 25 32 mph 1011.4mb 35f 14f
1:12 22 28 mph 1011.6mb 35f 15f
1:06 21 29 mph 1011.9mb 35f 15f
1:00 23 29 mph 1012.1mb 35f 15f
12:54 22 28 mph 1012.2mb 35f 15f
12:48 22 30 mph 1012.3mb 34f 15f
12:42 22 29 mph 1012.3mb 34f 15f
12:36 22 31 mph 1012.3mb 34f 16f
12:30 21 30 mph 1012.4mb 32f 16f
12:24 22 29 mph 1012.5mb 31f 16f
12:18 21 28 mph 1012.7mb 32f 16f
12:12 21 37 mph 1012.8mb 31f 16f
12:06 22 29 mph 1013mb 30f 16f
12:00 22 28 mph 1013.3mb 30f 16f
Seg 01/26 11:54 22 30 mph 1013.4mb 29f 16f
11:48 21 29 mph 1013.7mb 29f 16f
11:42 23 29 mph 1013.9mb 30f 16f
11:36 23 28 mph 1014.2mb 30f 16f
11:30 22 28 mph 1014.4mb 30f 16f
11:24 22 26 mph 1014.6mb 30f 16f
11:18 21 32 mph 1015mb 30f 16f
11:12 22 28 mph 1015.3mb 30f 16f
11:06 21 25 mph 1015.3mb 30f 16f
11:00 22 29 mph 1015.5mb 30f 16f
10:54 21 29 mph 1015.9mb 30f 16f
10:48 23 28 mph 1016.2mb 31f 16f
10:42 23 30 mph 1016.4mb 31f 16f
10:36 20 26 mph 1016.7mb 31f 16f
10:30 20 26 mph 1016.8mb 31f 16f
10:24 22 28 mph 1017mb 31f 16f
10:18 22 29 mph 1017.1mb 32f 16f
10:12 21 28 mph 1017.2mb 32f 16f
10:06 20 25 mph 1017.4mb 32f 17f
10:00 15 23 mph 1017.5mb 32f 17f
9:54 22 29 mph 1017.5mb 33f 17f
9:48 18 24 mph 1017.7mb 33f 17f
9:42 20 24 mph 1017.5mb 33f 17f
9:36 15 26 mph 1017.7mb 33f 17f
9:30 14 24 mph 1018mb 34f 17f
9:24 17 23 mph 1018.2mb 34f 17f
9:18 17 23 mph 1018.4mb 34f 17f
9:12 16 23 mph 1018.4mb 34f 17f
9:06 17 24 mph 1018.5mb 34f 17f
9:00 17 23 mph 1018.6mb 34f 17f
8:54 18 22 mph 1018.7mb 34f 17f
8:48  -  mph 1018.7mb 34f 17f
8:42  -  mph 1018.8mb 34f 17f
8:36  -  mph 1019.1mb 34f 17f
8:30 15 21 mph 1019.1mb 34f 17f
8:24 17 21 mph 1019.2mb 34f 18f
8:18 16 21 mph 1019.4mb 34f 18f
8:12 16 21 mph 1019.7mb 34f 18f
8:06 15 20 mph 1019.9mb 34f 18f
8:00 18 21 mph 1019.9mb 34f 18f
7:54 15 20 mph 1019.9mb 34f 19f
7:48 15 21 mph 1019.9mb 34f 19f
7:42 14 17 mph 1020mb 34f 19f
7:36 14 17 mph 1019.9mb 34f 19f
7:30 15 20 mph 1019.9mb 34f 19f
7:24 13 17 mph 1020mb 34f 19f
7:18 14 18 mph 1019.9mb 34f 19f
7:12 14 17 mph 1019.9mb 35f 19f
7:06 13 18 mph 1020mb 35f 19f
7:00 14 17 mph 1019.9mb 35f 19f
6:54 14 17 mph 1020.1mb 35f 19f
6:48 14 18 mph 1019.9mb 35f 19f
6:42 14 21 mph 1019.8mb 35f 19f
6:36 15 20 mph 1019.7mb 35f 19f
6:30 15 18 mph 1019.7mb 35f 19f
6:24 14 16 mph 1019.7mb 35f 19f
6:18 13 17 mph 1019.8mb 35f 19f
6:12 13 17 mph 1019.8mb 35f 19f
6:06 14 16 mph 1019.8mb 35f 19f
6:00 13 16 mph 1020.1mb 35f 20f
5:54 11 14 mph 1020.3mb 35f 20f
5:48 10 13 mph 1020.3mb 35f 20f
5:42 11 14 mph 1020.2mb 35f 20f
5:36 11 14 mph 1020.2mb 35f 20f
5:30 10 15 mph 1020.1mb 35f 20f
5:24 13 15 mph 1020.1mb 35f 20f
5:18 11 15 mph 1020.1mb 35f 20f
5:12 9 14 mph 1020mb 35f 20f
5:06 10 14 mph 1020mb 35f 20f
5:00 10 14 mph 1020mb 35f 20f
4:54 10 14 mph 1020.1mb 35f 21f
4:48 13 16 mph 1020mb 35f 21f
4:42 11 16 mph 1019.9mb 35f 21f
4:36 13 17 mph 1019.9mb 35f 21f
4:30 13 16 mph 1019.9mb 35f 21f
4:24 14 16 mph 1019.8mb 35f 21f
4:18 11 15 mph 1019.8mb 35f 21f
4:12 13 16 mph 1019.8mb 35f 20f
4:06 11 15 mph 1019.6mb 35f 21f
4:00 15 18 mph 1019.5mb 35f 20f
3:54 15 20 mph 1019.6mb 35f 20f
3:48 14 17 mph 1019.6mb 35f 21f
3:42 13 16 mph 1019.8mb 35f 20f
3:36 14 17 mph 1019.6mb 35f 20f
3:30 13 18 mph 1019.6mb 35f 21f
3:24 14 17 mph 1019.8mb 35f 21f
3:18 11 17 mph 1019.8mb 35f 21f
3:12 15 18 mph 1019.5mb 35f 20f
3:06 13 15 mph 1019.6mb 35f 20f
3:00 10 17 mph 1019.7mb 35f 20f
2:54 11 15 mph 1020mb 35f 20f
2:48 10 16 mph 1020mb 35f 20f
2:42 14 17 mph 1020mb 35f 20f
2:36 13 16 mph 1020mb 35f 20f
2:30 9 17 mph 1019.9mb 35f 20f
2:24 15 18 mph 1019.8mb 35f 20f
2:18 13 16 mph 1019.6mb 35f 20f
2:12 11 15 mph 1019.8mb 35f 20f
2:06 11 14 mph 1019.8mb 35f 20f
2:00 10 17 mph 1019.6mb 35f 20f
1:54 13 17 mph 1019.5mb 35f 20f
1:48 14 17 mph 1019.3mb 35f 20f
1:42 11 15 mph 1019.1mb 35f 20f
1:36 10 17 mph 1019.2mb 35f 20f
1:30 10 15 mph 1019.2mb 35f 20f
1:24 14 20 mph 1019.3mb 35f 20f
1:18 14 20 mph 1019.4mb 35f 20f
1:12 13 17 mph 1019.7mb 35f 20f
1:06 10 16 mph 1019.9mb 35f 20f
1:00 10 15 mph 1020.1mb 35f 20f
12:54 10 14 mph 1020.2mb 35f 19f
12:48 13 16 mph 1020.3mb 35f 19f
12:42 8 11 mph 1020.4mb 35f 19f
12:36 10 16 mph 1020.4mb 34f 19f
12:30 10 13 mph 1020.4mb 34f 19f
12:24 8 11 mph 1020.5mb 33f 18f
12:18 10 14 mph 1020.5mb 31f 18f
12:12 13 16 mph 1020.5mb 31f 18f
12:06 10 15 mph 1020.8mb 30f 18f
12:00 11 14 mph 1020.8mb 30f 18f
11:54 8 14 mph 1021mb 30f 17f
11:48 8 14 mph 1021.1mb 30f 17f
11:42 10 14 mph 1021.2mb 30f 17f
11:36 11 14 mph 1021.4mb 30f 16f
11:30 9 13 mph 1021.5mb 30f 17f
11:24 9 13 mph 1021.5mb 30f 16f
11:18 11 15 mph 1021.5mb 30f 16f
11:12 10 14 mph 1021.6mb 30f 16f
11:06 8 11 mph 1021.8mb 30f 15f
11:00 8 10 mph 1021.8mb 30f 15f
10:54 6 9 mph 1022mb 30f 15f
10:48 7 9 mph 1022.2mb 31f 15f
10:42 6 9 mph 1022.3mb 31f 15f
10:36 7 11 mph 1022.3mb 32f 14f
10:30 10 11 mph 1022.3mb 32f 14f
10:24 9 11 mph 1022.3mb 32f 14f
10:18 6 8 mph 1022.4mb 32f 14f
10:12 7 9 mph 1022.3mb 32f 13f
10:06 6 8 mph 1022.2mb 33f 13f